sensor_id;sensor_type;location;lat;lon;timestamp;P1;durP1;ratioP1;P2;durP2;ratioP2
6432;SDS011;3249;42.690;23.260;2023-12-14T00:00:30;25.57;;;19.40;;
6432;SDS011;3249;42.690;23.260;2023-12-14T00:03:03;26.00;;;19.27;;
6432;SDS011;3249;42.690;23.260;2023-12-14T00:05:33;21.97;;;17.20;;
6432;SDS011;3249;42.690;23.260;2023-12-14T00:08:03;25.10;;;18.47;;
6432;SDS011;3249;42.690;23.260;2023-12-14T00:10:33;25.10;;;19.83;;
6432;SDS011;3249;42.690;23.260;2023-12-14T00:13:03;23.13;;;18.20;;
6432;SDS011;3249;42.690;23.260;2023-12-14T00:15:36;25.83;;;19.17;;
6432;SDS011;3249;42.690;23.260;2023-12-14T00:18:08;28.93;;;19.77;;
6432;SDS011;3249;42.690;23.260;2023-12-14T00:20:37;23.40;;;17.53;;
6432;SDS011;3249;42.690;23.260;2023-12-14T00:23:08;25.60;;;17.17;;
6432;SDS011;3249;42.690;23.260;2023-12-14T00:25:37;29.53;;;19.33;;
6432;SDS011;3249;42.690;23.260;2023-12-14T00:28:06;25.43;;;17.93;;
6432;SDS011;3249;42.690;23.260;2023-12-14T00:30:42;24.83;;;18.73;;
6432;SDS011;3249;42.690;23.260;2023-12-14T00:33:12;23.23;;;17.70;;
6432;SDS011;3249;42.690;23.260;2023-12-14T00:35:41;26.43;;;19.80;;
6432;SDS011;3249;42.690;23.260;2023-12-14T00:38:10;26.17;;;19.80;;
6432;SDS011;3249;42.690;23.260;2023-12-14T00:40:40;27.93;;;19.50;;
6432;SDS011;3249;42.690;23.260;2023-12-14T00:43:09;23.00;;;15.97;;
6432;SDS011;3249;42.690;23.260;2023-12-14T00:45:39;22.37;;;17.70;;
6432;SDS011;3249;42.690;23.260;2023-12-14T00:48:11;20.20;;;17.00;;
6432;SDS011;3249;42.690;23.260;2023-12-14T00:50:40;25.33;;;17.70;;
6432;SDS011;3249;42.690;23.260;2023-12-14T00:53:10;24.93;;;17.53;;
6432;SDS011;3249;42.690;23.260;2023-12-14T00:55:39;22.47;;;17.20;;
6432;SDS011;3249;42.690;23.260;2023-12-14T00:58:09;19.83;;;16.43;;
6432;SDS011;3249;42.690;23.260;2023-12-14T01:00:39;20.70;;;16.73;;
6432;SDS011;3249;42.690;23.260;2023-12-14T01:03:11;22.63;;;15.73;;
6432;SDS011;3249;42.690;23.260;2023-12-14T01:05:42;18.83;;;15.43;;
6432;SDS011;3249;42.690;23.260;2023-12-14T01:08:11;19.07;;;14.93;;
6432;SDS011;3249;42.690;23.260;2023-12-14T01:10:40;19.30;;;15.47;;
6432;SDS011;3249;42.690;23.260;2023-12-14T01:13:09;18.27;;;14.53;;
6432;SDS011;3249;42.690;23.260;2023-12-14T01:15:42;18.30;;;15.50;;
6432;SDS011;3249;42.690;23.260;2023-12-14T01:18:12;16.40;;;14.13;;
6432;SDS011;3249;42.690;23.260;2023-12-14T01:20:42;18.63;;;13.70;;
6432;SDS011;3249;42.690;23.260;2023-12-14T01:23:12;18.90;;;14.63;;
6432;SDS011;3249;42.690;23.260;2023-12-14T01:25:45;18.90;;;14.70;;
6432;SDS011;3249;42.690;23.260;2023-12-14T01:28:15;18.77;;;13.63;;
6432;SDS011;3249;42.690;23.260;2023-12-14T01:30:46;19.97;;;15.20;;
6432;SDS011;3249;42.690;23.260;2023-12-14T01:33:15;16.77;;;13.90;;
6432;SDS011;3249;42.690;23.260;2023-12-14T01:35:45;20.97;;;14.93;;
6432;SDS011;3249;42.690;23.260;2023-12-14T01:38:14;17.17;;;13.57;;
6432;SDS011;3249;42.690;23.260;2023-12-14T01:40:44;17.20;;;13.93;;
6432;SDS011;3249;42.690;23.260;2023-12-14T01:43:13;18.77;;;14.90;;
6432;SDS011;3249;42.690;23.260;2023-12-14T01:45:42;21.27;;;14.97;;
6432;SDS011;3249;42.690;23.260;2023-12-14T01:48:14;16.90;;;13.77;;
6432;SDS011;3249;42.690;23.260;2023-12-14T01:50:43;19.37;;;14.10;;
6432;SDS011;3249;42.690;23.260;2023-12-14T01:53:12;17.17;;;14.13;;
6432;SDS011;3249;42.690;23.260;2023-12-14T01:55:43;23.17;;;15.83;;
6432;SDS011;3249;42.690;23.260;2023-12-14T01:58:13;18.73;;;14.00;;
6432;SDS011;3249;42.690;23.260;2023-12-14T02:00:43;21.83;;;14.63;;
6432;SDS011;3249;42.690;23.260;2023-12-14T02:03:20;20.73;;;14.80;;
6432;SDS011;3249;42.690;23.260;2023-12-14T02:05:49;20.20;;;14.80;;
6432;SDS011;3249;42.690;23.260;2023-12-14T02:08:19;19.90;;;15.40;;
6432;SDS011;3249;42.690;23.260;2023-12-14T02:10:48;21.10;;;14.63;;
6432;SDS011;3249;42.690;23.260;2023-12-14T02:13:20;18.47;;;15.00;;
6432;SDS011;3249;42.690;23.260;2023-12-14T02:15:51;18.37;;;14.40;;
6432;SDS011;3249;42.690;23.260;2023-12-14T02:18:23;17.73;;;14.73;;
6432;SDS011;3249;42.690;23.260;2023-12-14T02:20:53;19.43;;;15.00;;
6432;SDS011;3249;42.690;23.260;2023-12-14T02:23:26;16.10;;;14.33;;
6432;SDS011;3249;42.690;23.260;2023-12-14T02:25:56;20.07;;;14.97;;
6432;SDS011;3249;42.690;23.260;2023-12-14T02:28:26;22.20;;;15.57;;
6432;SDS011;3249;42.690;23.260;2023-12-14T02:30:56;16.93;;;14.23;;
6432;SDS011;3249;42.690;23.260;2023-12-14T02:33:25;19.53;;;14.67;;
6432;SDS011;3249;42.690;23.260;2023-12-14T02:35:55;19.23;;;14.77;;
6432;SDS011;3249;42.690;23.260;2023-12-14T02:38:27;16.83;;;14.67;;
6432;SDS011;3249;42.690;23.260;2023-12-14T02:40:56;18.43;;;14.27;;
6432;SDS011;3249;42.690;23.260;2023-12-14T02:43:25;13.67;;;12.27;;
6432;SDS011;3249;42.690;23.260;2023-12-14T02:45:55;14.50;;;12.20;;
6432;SDS011;3249;42.690;23.260;2023-12-14T02:48:28;14.93;;;12.47;;
6432;SDS011;3249;42.690;23.260;2023-12-14T02:50:57;14.20;;;12.47;;
6432;SDS011;3249;42.690;23.260;2023-12-14T02:53:30;14.63;;;12.43;;
6432;SDS011;3249;42.690;23.260;2023-12-14T02:56:01;15.80;;;12.03;;
6432;SDS011;3249;42.690;23.260;2023-12-14T02:58:30;16.77;;;13.43;;
6432;SDS011;3249;42.690;23.260;2023-12-14T03:00:59;15.77;;;12.33;;
6432;SDS011;3249;42.690;23.260;2023-12-14T03:03:29;16.83;;;13.20;;
6432;SDS011;3249;42.690;23.260;2023-12-14T03:05:58;18.60;;;13.83;;
6432;SDS011;3249;42.690;23.260;2023-12-14T03:08:30;23.93;;;19.23;;
6432;SDS011;3249;42.690;23.260;2023-12-14T03:10:59;26.07;;;17.83;;
6432;SDS011;3249;42.690;23.260;2023-12-14T03:13:28;141.73;;;66.40;;
6432;SDS011;3249;42.690;23.260;2023-12-14T03:15:58;62.23;;;35.33;;
6432;SDS011;3249;42.690;23.260;2023-12-14T03:18:27;255.20;;;112.73;;
6432;SDS011;3249;42.690;23.260;2023-12-14T03:20:56;290.17;;;130.30;;
6432;SDS011;3249;42.690;23.260;2023-12-14T03:23:26;94.87;;;45.37;;
6432;SDS011;3249;42.690;23.260;2023-12-14T03:25:57;115.50;;;54.50;;
6432;SDS011;3249;42.690;23.260;2023-12-14T03:28:27;87.30;;;41.50;;
6432;SDS011;3249;42.690;23.260;2023-12-14T03:30:56;46.60;;;29.37;;
6432;SDS011;3249;42.690;23.260;2023-12-14T03:33:25;46.23;;;28.10;;
6432;SDS011;3249;42.690;23.260;2023-12-14T03:35:55;37.57;;;24.57;;
6432;SDS011;3249;42.690;23.260;2023-12-14T03:38:25;34.80;;;18.77;;
6432;SDS011;3249;42.690;23.260;2023-12-14T03:40:54;17.00;;;13.43;;
6432;SDS011;3249;42.690;23.260;2023-12-14T03:43:26;21.70;;;16.10;;
6432;SDS011;3249;42.690;23.260;2023-12-14T03:45:56;20.50;;;15.60;;
6432;SDS011;3249;42.690;23.260;2023-12-14T03:48:25;24.23;;;16.43;;
6432;SDS011;3249;42.690;23.260;2023-12-14T03:50:54;21.77;;;16.40;;
6432;SDS011;3249;42.690;23.260;2023-12-14T03:53:24;22.93;;;17.47;;
6432;SDS011;3249;42.690;23.260;2023-12-14T03:55:53;29.53;;;19.17;;
6432;SDS011;3249;42.690;23.260;2023-12-14T03:58:25;25.93;;;18.63;;
6432;SDS011;3249;42.690;23.260;2023-12-14T04:00:55;28.07;;;19.03;;
6432;SDS011;3249;42.690;23.260;2023-12-14T04:03:24;27.33;;;20.10;;
6432;SDS011;3249;42.690;23.260;2023-12-14T04:05:53;31.00;;;18.53;;
6432;SDS011;3249;42.690;23.260;2023-12-14T04:08:23;26.70;;;16.80;;
6432;SDS011;3249;42.690;23.260;2023-12-14T04:10:52;28.33;;;21.37;;
6432;SDS011;3249;42.690;23.260;2023-12-14T04:13:22;31.30;;;21.07;;
6432;SDS011;3249;42.690;23.260;2023-12-14T04:15:53;29.20;;;19.97;;
6432;SDS011;3249;42.690;23.260;2023-12-14T04:18:23;24.53;;;18.03;;
6432;SDS011;3249;42.690;23.260;2023-12-14T04:20:52;17.20;;;14.10;;
6432;SDS011;3249;42.690;23.260;2023-12-14T04:23:22;17.40;;;13.50;;
6432;SDS011;3249;42.690;23.260;2023-12-14T04:25:52;13.60;;;11.43;;
6432;SDS011;3249;42.690;23.260;2023-12-14T04:28:21;12.80;;;11.43;;
6432;SDS011;3249;42.690;23.260;2023-12-14T04:30:54;13.67;;;9.53;;
6432;SDS011;3249;42.690;23.260;2023-12-14T04:33:23;12.87;;;9.53;;
6432;SDS011;3249;42.690;23.260;2023-12-14T04:35:52;10.37;;;9.30;;
6432;SDS011;3249;42.690;23.260;2023-12-14T04:38:21;9.80;;;8.80;;
6432;SDS011;3249;42.690;23.260;2023-12-14T04:40:50;9.77;;;8.53;;
6432;SDS011;3249;42.690;23.260;2023-12-14T04:43:20;14.53;;;12.17;;
6432;SDS011;3249;42.690;23.260;2023-12-14T04:45:49;11.60;;;9.73;;
6432;SDS011;3249;42.690;23.260;2023-12-14T04:48:21;9.87;;;8.87;;
6432;SDS011;3249;42.690;23.260;2023-12-14T04:50:51;9.70;;;8.70;;
6432;SDS011;3249;42.690;23.260;2023-12-14T04:53:20;10.90;;;9.10;;
6432;SDS011;3249;42.690;23.260;2023-12-14T04:55:50;11.23;;;9.50;;
6432;SDS011;3249;42.690;23.260;2023-12-14T04:58:19;13.17;;;11.77;;
6432;SDS011;3249;42.690;23.260;2023-12-14T05:00:48;11.17;;;10.03;;
6432;SDS011;3249;42.690;23.260;2023-12-14T05:03:19;9.40;;;8.47;;
6432;SDS011;3249;42.690;23.260;2023-12-14T05:05:51;14.50;;;10.70;;
6432;SDS011;3249;42.690;23.260;2023-12-14T05:08:20;12.07;;;10.67;;
6432;SDS011;3249;42.690;23.260;2023-12-14T05:10:50;16.30;;;13.37;;
6432;SDS011;3249;42.690;23.260;2023-12-14T05:13:19;17.70;;;13.23;;
6432;SDS011;3249;42.690;23.260;2023-12-14T05:15:48;12.47;;;11.07;;
6432;SDS011;3249;42.690;23.260;2023-12-14T05:18:23;11.97;;;10.40;;
6432;SDS011;3249;42.690;23.260;2023-12-14T05:20:53;17.13;;;14.47;;
6432;SDS011;3249;42.690;23.260;2023-12-14T05:23:22;12.57;;;11.27;;
6432;SDS011;3249;42.690;23.260;2023-12-14T05:25:52;16.37;;;13.77;;
6432;SDS011;3249;42.690;23.260;2023-12-14T05:28:21;19.13;;;13.63;;
6432;SDS011;3249;42.690;23.260;2023-12-14T05:30:48;16.33;;;13.87;;
6432;SDS011;3249;42.690;23.260;2023-12-14T05:33:17;14.53;;;12.60;;
6432;SDS011;3249;42.690;23.260;2023-12-14T05:35:49;16.53;;;11.80;;
6432;SDS011;3249;42.690;23.260;2023-12-14T05:38:19;17.20;;;14.37;;
6432;SDS011;3249;42.690;23.260;2023-12-14T05:40:49;17.77;;;14.03;;
6432;SDS011;3249;42.690;23.260;2023-12-14T05:43:18;16.37;;;13.53;;
6432;SDS011;3249;42.690;23.260;2023-12-14T05:45:47;16.13;;;14.30;;
6432;SDS011;3249;42.690;23.260;2023-12-14T05:48:16;18.83;;;14.37;;
6432;SDS011;3249;42.690;23.260;2023-12-14T05:50:46;18.57;;;13.90;;
6432;SDS011;3249;42.690;23.260;2023-12-14T05:53:19;24.70;;;19.27;;
6432;SDS011;3249;42.690;23.260;2023-12-14T05:55:49;23.83;;;17.87;;
6432;SDS011;3249;42.690;23.260;2023-12-14T05:58:18;20.80;;;14.77;;
6432;SDS011;3249;42.690;23.260;2023-12-14T06:00:48;27.87;;;18.10;;
6432;SDS011;3249;42.690;23.260;2023-12-14T06:03:17;21.07;;;14.17;;
6432;SDS011;3249;42.690;23.260;2023-12-14T06:05:49;18.63;;;15.77;;
6432;SDS011;3249;42.690;23.260;2023-12-14T06:08:18;24.87;;;16.27;;
6432;SDS011;3249;42.690;23.260;2023-12-14T06:10:47;19.53;;;17.43;;
6432;SDS011;3249;42.690;23.260;2023-12-14T06:13:17;15.00;;;12.93;;
6432;SDS011;3249;42.690;23.260;2023-12-14T06:15:47;17.80;;;14.20;;
6432;SDS011;3249;42.690;23.260;2023-12-14T06:18:16;13.60;;;11.87;;
6432;SDS011;3249;42.690;23.260;2023-12-14T06:20:45;16.30;;;12.63;;
6432;SDS011;3249;42.690;23.260;2023-12-14T06:23:18;13.77;;;11.17;;
6432;SDS011;3249;42.690;23.260;2023-12-14T06:25:47;12.33;;;10.07;;
6432;SDS011;3249;42.690;23.260;2023-12-14T06:28:17;10.03;;;9.03;;
6432;SDS011;3249;42.690;23.260;2023-12-14T06:30:46;11.60;;;10.00;;
6432;SDS011;3249;42.690;23.260;2023-12-14T06:33:16;17.17;;;9.37;;
6432;SDS011;3249;42.690;23.260;2023-12-14T06:35:45;13.90;;;11.33;;
6432;SDS011;3249;42.690;23.260;2023-12-14T06:38:16;11.80;;;10.27;;
6432;SDS011;3249;42.690;23.260;2023-12-14T06:40:46;14.03;;;10.20;;
6432;SDS011;3249;42.690;23.260;2023-12-14T06:43:15;14.27;;;11.90;;
6432;SDS011;3249;42.690;23.260;2023-12-14T06:45:45;13.80;;;11.73;;
6432;SDS011;3249;42.690;23.260;2023-12-14T06:48:14;14.53;;;12.27;;
6432;SDS011;3249;42.690;23.260;2023-12-14T06:50:43;13.40;;;10.60;;
6432;SDS011;3249;42.690;23.260;2023-12-14T06:53:12;14.40;;;11.43;;
6432;SDS011;3249;42.690;23.260;2023-12-14T06:55:45;14.30;;;11.63;;
6432;SDS011;3249;42.690;23.260;2023-12-14T06:58:14;14.97;;;12.57;;
6432;SDS011;3249;42.690;23.260;2023-12-14T07:00:44;24.10;;;12.80;;
6432;SDS011;3249;42.690;23.260;2023-12-14T07:03:13;19.47;;;11.37;;
6432;SDS011;3249;42.690;23.260;2023-12-14T07:05:42;15.30;;;11.60;;
6432;SDS011;3249;42.690;23.260;2023-12-14T07:08:11;13.20;;;11.07;;
6432;SDS011;3249;42.690;23.260;2023-12-14T07:10:41;13.43;;;11.07;;
6432;SDS011;3249;42.690;23.260;2023-12-14T07:13:13;16.63;;;12.43;;
6432;SDS011;3249;42.690;23.260;2023-12-14T07:15:43;18.37;;;11.93;;
6432;SDS011;3249;42.690;23.260;2023-12-14T07:18:12;24.37;;;12.93;;
6432;SDS011;3249;42.690;23.260;2023-12-14T07:20:41;17.70;;;13.03;;
6432;SDS011;3249;42.690;23.260;2023-12-14T07:23:10;17.83;;;12.83;;
6432;SDS011;3249;42.690;23.260;2023-12-14T07:25:40;22.57;;;17.40;;
6432;SDS011;3249;42.690;23.260;2023-12-14T07:28:09;28.97;;;18.97;;
6432;SDS011;3249;42.690;23.260;2023-12-14T07:30:41;22.03;;;16.80;;
6432;SDS011;3249;42.690;23.260;2023-12-14T07:33:10;17.37;;;13.47;;
6432;SDS011;3249;42.690;23.260;2023-12-14T07:35:40;17.00;;;13.53;;
6432;SDS011;3249;42.690;23.260;2023-12-14T07:38:09;24.73;;;20.63;;
6432;SDS011;3249;42.690;23.260;2023-12-14T07:40:39;19.13;;;12.10;;
6432;SDS011;3249;42.690;23.260;2023-12-14T07:43:09;21.13;;;13.47;;
6432;SDS011;3249;42.690;23.260;2023-12-14T07:45:41;27.57;;;17.33;;
6432;SDS011;3249;42.690;23.260;2023-12-14T07:48:11;25.33;;;17.97;;
6432;SDS011;3249;42.690;23.260;2023-12-14T07:50:40;28.83;;;21.27;;
6432;SDS011;3249;42.690;23.260;2023-12-14T07:53:12;23.10;;;17.60;;
6432;SDS011;3249;42.690;23.260;2023-12-14T07:55:41;33.93;;;19.67;;
6432;SDS011;3249;42.690;23.260;2023-12-14T07:58:10;24.80;;;17.60;;
6432;SDS011;3249;42.690;23.260;2023-12-14T08:00:42;24.13;;;17.83;;
6432;SDS011;3249;42.690;23.260;2023-12-14T08:03:11;20.33;;;15.50;;
6432;SDS011;3249;42.690;23.260;2023-12-14T08:05:40;22.43;;;14.63;;
6432;SDS011;3249;42.690;23.260;2023-12-14T08:08:10;19.07;;;14.97;;
6432;SDS011;3249;42.690;23.260;2023-12-14T08:10:39;18.27;;;14.00;;
6432;SDS011;3249;42.690;23.260;2023-12-14T08:16:01;22.77;;;14.87;;
6432;SDS011;3249;42.690;23.260;2023-12-14T08:18:30;22.07;;;14.13;;
6432;SDS011;3249;42.690;23.260;2023-12-14T08:21:09;20.90;;;13.77;;
6432;SDS011;3249;42.690;23.260;2023-12-14T08:23:38;17.10;;;12.47;;
6432;SDS011;3249;42.690;23.260;2023-12-14T08:26:08;41.80;;;15.97;;
6432;SDS011;3249;42.690;23.260;2023-12-14T08:28:38;20.53;;;13.70;;
6432;SDS011;3249;42.690;23.260;2023-12-14T08:31:11;24.80;;;14.40;;
6432;SDS011;3249;42.690;23.260;2023-12-14T08:33:41;29.43;;;15.33;;
6432;SDS011;3249;42.690;23.260;2023-12-14T08:36:10;23.80;;;15.33;;
6432;SDS011;3249;42.690;23.260;2023-12-14T08:38:43;19.90;;;13.23;;
6432;SDS011;3249;42.690;23.260;2023-12-14T08:41:13;20.80;;;12.40;;
6432;SDS011;3249;42.690;23.260;2023-12-14T08:43:42;38.83;;;14.83;;
6432;SDS011;3249;42.690;23.260;2023-12-14T08:46:14;30.23;;;15.80;;
6432;SDS011;3249;42.690;23.260;2023-12-14T08:48:44;28.40;;;15.27;;
6432;SDS011;3249;42.690;23.260;2023-12-14T08:51:14;20.67;;;12.70;;
6432;SDS011;3249;42.690;23.260;2023-12-14T08:53:44;20.53;;;13.37;;
6432;SDS011;3249;42.690;23.260;2023-12-14T08:56:13;19.20;;;12.60;;
6432;SDS011;3249;42.690;23.260;2023-12-14T08:58:43;21.07;;;11.07;;
6432;SDS011;3249;42.690;23.260;2023-12-14T09:01:12;19.83;;;11.57;;
6432;SDS011;3249;42.690;23.260;2023-12-14T09:03:51;20.57;;;10.90;;
6432;SDS011;3249;42.690;23.260;2023-12-14T09:06:20;18.57;;;11.37;;
6432;SDS011;3249;42.690;23.260;2023-12-14T09:08:49;21.03;;;11.40;;
6432;SDS011;3249;42.690;23.260;2023-12-14T09:11:19;20.77;;;10.70;;
6432;SDS011;3249;42.690;23.260;2023-12-14T09:13:48;17.17;;;10.67;;
6432;SDS011;3249;42.690;23.260;2023-12-14T09:16:18;28.03;;;11.53;;
6432;SDS011;3249;42.690;23.260;2023-12-14T09:18:49;21.40;;;9.63;;
6432;SDS011;3249;42.690;23.260;2023-12-14T09:21:18;11.50;;;8.93;;
6432;SDS011;3249;42.690;23.260;2023-12-14T09:23:47;20.30;;;9.97;;
6432;SDS011;3249;42.690;23.260;2023-12-14T09:26:19;16.37;;;9.37;;
6432;SDS011;3249;42.690;23.260;2023-12-14T09:28:48;22.77;;;9.37;;
6432;SDS011;3249;42.690;23.260;2023-12-14T09:31:17;17.37;;;8.57;;
6432;SDS011;3249;42.690;23.260;2023-12-14T09:33:49;18.00;;;9.23;;
6432;SDS011;3249;42.690;23.260;2023-12-14T09:36:18;21.53;;;8.17;;
6432;SDS011;3249;42.690;23.260;2023-12-14T09:38:48;10.13;;;8.03;;
6432;SDS011;3249;42.690;23.260;2023-12-14T09:41:17;10.23;;;6.87;;
6432;SDS011;3249;42.690;23.260;2023-12-14T09:43:46;11.93;;;7.57;;
6432;SDS011;3249;42.690;23.260;2023-12-14T09:46:15;14.90;;;8.63;;
6432;SDS011;3249;42.690;23.260;2023-12-14T09:48:49;14.90;;;8.60;;
6432;SDS011;3249;42.690;23.260;2023-12-14T09:51:19;28.60;;;9.73;;
6432;SDS011;3249;42.690;23.260;2023-12-14T09:53:49;13.10;;;8.83;;
6432;SDS011;3249;42.690;23.260;2023-12-14T09:56:23;14.63;;;8.73;;
6432;SDS011;3249;42.690;23.260;2023-12-14T09:58:53;9.13;;;8.23;;
6432;SDS011;3249;42.690;23.260;2023-12-14T10:01:23;13.47;;;7.90;;
6432;SDS011;3249;42.690;23.260;2023-12-14T10:04:07;39.53;;;20.73;;
6432;SDS011;3249;42.690;23.260;2023-12-14T10:06:38;41.73;;;18.73;;
6432;SDS011;3249;42.690;23.260;2023-12-14T10:09:09;38.40;;;20.67;;
6432;SDS011;3249;42.690;23.260;2023-12-14T10:11:44;25.20;;;15.60;;
6432;SDS011;3249;42.690;23.260;2023-12-14T10:14:23;30.70;;;22.60;;
6432;SDS011;3249;42.690;23.260;2023-12-14T10:16:53;34.73;;;22.47;;
6432;SDS011;3249;42.690;23.260;2023-12-14T10:19:26;32.97;;;24.70;;
6432;SDS011;3249;42.690;23.260;2023-12-14T10:21:56;31.00;;;20.90;;
6432;SDS011;3249;42.690;23.260;2023-12-14T10:24:27;35.10;;;23.43;;
6432;SDS011;3249;42.690;23.260;2023-12-14T10:26:57;30.57;;;21.63;;
6432;SDS011;3249;42.690;23.260;2023-12-14T10:29:27;29.20;;;22.70;;
6432;SDS011;3249;42.690;23.260;2023-12-14T10:31:56;28.57;;;20.60;;
6432;SDS011;3249;42.690;23.260;2023-12-14T10:34:28;33.60;;;20.70;;
6432;SDS011;3249;42.690;23.260;2023-12-14T10:36:58;19.07;;;12.57;;
6432;SDS011;3249;42.690;23.260;2023-12-14T10:39:29;17.83;;;12.37;;
6432;SDS011;3249;42.690;23.260;2023-12-14T10:42:00;13.20;;;11.00;;
6432;SDS011;3249;42.690;23.260;2023-12-14T10:44:32;15.77;;;10.23;;
6432;SDS011;3249;42.690;23.260;2023-12-14T10:47:05;10.00;;;9.07;;
6432;SDS011;3249;42.690;23.260;2023-12-14T10:49:38;8.97;;;7.93;;
6432;SDS011;3249;42.690;23.260;2023-12-14T10:52:10;8.87;;;7.30;;
6432;SDS011;3249;42.690;23.260;2023-12-14T10:54:39;9.07;;;6.73;;
6432;SDS011;3249;42.690;23.260;2023-12-14T10:57:10;6.47;;;5.80;;
6432;SDS011;3249;42.690;23.260;2023-12-14T10:59:39;6.03;;;5.60;;
6432;SDS011;3249;42.690;23.260;2023-12-14T11:02:11;6.20;;;5.27;;
6432;SDS011;3249;42.690;23.260;2023-12-14T11:04:57;5.43;;;4.50;;
6432;SDS011;3249;42.690;23.260;2023-12-14T11:10:22;4.23;;;3.57;;
6432;SDS011;3249;42.690;23.260;2023-12-14T11:12:56;7.50;;;4.37;;
6432;SDS011;3249;42.690;23.260;2023-12-14T11:15:28;5.33;;;3.60;;
6432;SDS011;3249;42.690;23.260;2023-12-14T11:21:00;5.60;;;3.83;;
6432;SDS011;3249;42.690;23.260;2023-12-14T11:23:35;3.87;;;3.50;;
6432;SDS011;3249;42.690;23.260;2023-12-14T11:26:06;3.20;;;3.00;;
6432;SDS011;3249;42.690;23.260;2023-12-14T11:28:39;4.60;;;2.40;;
6432;SDS011;3249;42.690;23.260;2023-12-14T11:31:11;3.57;;;3.00;;
6432;SDS011;3249;42.690;23.260;2023-12-14T11:33:41;3.20;;;2.90;;
6432;SDS011;3249;42.690;23.260;2023-12-14T11:36:13;2.83;;;2.43;;
6432;SDS011;3249;42.690;23.260;2023-12-14T11:38:43;2.07;;;1.97;;
6432;SDS011;3249;42.690;23.260;2023-12-14T11:41:13;2.10;;;2.00;;
6432;SDS011;3249;42.690;23.260;2023-12-14T11:43:43;2.17;;;2.07;;
6432;SDS011;3249;42.690;23.260;2023-12-14T11:46:12;2.73;;;2.20;;
6432;SDS011;3249;42.690;23.260;2023-12-14T11:48:43;1.87;;;1.73;;
6432;SDS011;3249;42.690;23.260;2023-12-14T11:51:17;2.40;;;2.00;;
6432;SDS011;3249;42.690;23.260;2023-12-14T11:53:46;5.20;;;2.00;;
6432;SDS011;3249;42.690;23.260;2023-12-14T11:56:17;2.50;;;2.30;;
6432;SDS011;3249;42.690;23.260;2023-12-14T11:58:48;1.60;;;1.50;;
6432;SDS011;3249;42.690;23.260;2023-12-14T12:01:20;2.57;;;1.80;;
6432;SDS011;3249;42.690;23.260;2023-12-14T12:03:51;1.90;;;1.67;;
6432;SDS011;3249;42.690;23.260;2023-12-14T12:06:24;1.63;;;1.53;;
6432;SDS011;3249;42.690;23.260;2023-12-14T12:08:54;1.73;;;1.73;;
6432;SDS011;3249;42.690;23.260;2023-12-14T12:11:25;2.00;;;1.43;;
6432;SDS011;3249;42.690;23.260;2023-12-14T12:13:54;1.80;;;1.70;;
6432;SDS011;3249;42.690;23.260;2023-12-14T12:16:25;1.23;;;1.23;;
6432;SDS011;3249;42.690;23.260;2023-12-14T12:18:55;1.83;;;1.53;;
6432;SDS011;3249;42.690;23.260;2023-12-14T12:21:26;2.00;;;1.80;;
6432;SDS011;3249;42.690;23.260;2023-12-14T12:23:56;1.33;;;1.23;;
6432;SDS011;3249;42.690;23.260;2023-12-14T12:26:25;1.80;;;1.70;;
6432;SDS011;3249;42.690;23.260;2023-12-14T12:28:54;1.80;;;1.70;;
6432;SDS011;3249;42.690;23.260;2023-12-14T12:31:24;2.67;;;1.80;;
6432;SDS011;3249;42.690;23.260;2023-12-14T12:33:53;1.73;;;1.73;;
6432;SDS011;3249;42.690;23.260;2023-12-14T12:36:22;2.43;;;2.17;;
6432;SDS011;3249;42.690;23.260;2023-12-14T12:38:55;2.80;;;1.70;;
6432;SDS011;3249;42.690;23.260;2023-12-14T12:41:25;1.80;;;1.70;;
6432;SDS011;3249;42.690;23.260;2023-12-14T12:43:54;1.80;;;1.70;;
6432;SDS011;3249;42.690;23.260;2023-12-14T12:46:23;1.67;;;1.57;;
6432;SDS011;3249;42.690;23.260;2023-12-14T12:48:52;1.50;;;1.40;;
6432;SDS011;3249;42.690;23.260;2023-12-14T12:51:21;1.30;;;1.30;;
6432;SDS011;3249;42.690;23.260;2023-12-14T12:53:51;2.40;;;1.60;;
6432;SDS011;3249;42.690;23.260;2023-12-14T12:56:23;1.40;;;1.40;;
6432;SDS011;3249;42.690;23.260;2023-12-14T12:58:53;1.50;;;1.50;;
6432;SDS011;3249;42.690;23.260;2023-12-14T13:01:23;2.60;;;1.70;;
6432;SDS011;3249;42.690;23.260;2023-12-14T13:03:53;1.90;;;1.80;;
6432;SDS011;3249;42.690;23.260;2023-12-14T13:06:24;2.00;;;1.90;;
6432;SDS011;3249;42.690;23.260;2023-12-14T13:08:53;1.43;;;1.37;;
6432;SDS011;3249;42.690;23.260;2023-12-14T13:11:26;3.17;;;2.03;;
6432;SDS011;3249;42.690;23.260;2023-12-14T13:13:56;1.63;;;1.47;;
6432;SDS011;3249;42.690;23.260;2023-12-14T13:16:29;1.73;;;1.63;;
6432;SDS011;3249;42.690;23.260;2023-12-14T13:18:58;1.40;;;1.40;;
6432;SDS011;3249;42.690;23.260;2023-12-14T13:21:29;1.63;;;1.40;;
6432;SDS011;3249;42.690;23.260;2023-12-14T13:24:03;1.93;;;1.83;;
6432;SDS011;3249;42.690;23.260;2023-12-14T13:26:35;3.30;;;1.80;;
6432;SDS011;3249;42.690;23.260;2023-12-14T13:29:05;1.70;;;1.60;;
6432;SDS011;3249;42.690;23.260;2023-12-14T13:31:36;2.90;;;2.10;;
6432;SDS011;3249;42.690;23.260;2023-12-14T13:34:06;1.90;;;1.80;;
6432;SDS011;3249;42.690;23.260;2023-12-14T13:36:39;2.80;;;2.60;;
6432;SDS011;3249;42.690;23.260;2023-12-14T13:39:16;2.60;;;2.33;;
6432;SDS011;3249;42.690;23.260;2023-12-14T13:41:51;3.23;;;2.93;;
6432;SDS011;3249;42.690;23.260;2023-12-14T13:44:21;3.13;;;2.30;;
6432;SDS011;3249;42.690;23.260;2023-12-14T13:46:50;2.67;;;2.40;;
6432;SDS011;3249;42.690;23.260;2023-12-14T13:49:20;2.97;;;2.70;;
6432;SDS011;3249;42.690;23.260;2023-12-14T13:51:49;2.93;;;2.50;;
6432;SDS011;3249;42.690;23.260;2023-12-14T13:54:18;3.47;;;1.93;;
6432;SDS011;3249;42.690;23.260;2023-12-14T13:56:48;3.70;;;2.10;;
6432;SDS011;3249;42.690;23.260;2023-12-14T13:59:21;2.63;;;2.13;;
6432;SDS011;3249;42.690;23.260;2023-12-14T14:01:51;2.10;;;2.00;;
6432;SDS011;3249;42.690;23.260;2023-12-14T14:04:20;2.60;;;1.90;;
6432;SDS011;3249;42.690;23.260;2023-12-14T14:06:49;3.23;;;2.50;;
6432;SDS011;3249;42.690;23.260;2023-12-14T14:09:18;1.67;;;1.50;;
6432;SDS011;3249;42.690;23.260;2023-12-14T14:11:48;1.80;;;1.70;;
6432;SDS011;3249;42.690;23.260;2023-12-14T14:14:17;1.90;;;1.80;;
6432;SDS011;3249;42.690;23.260;2023-12-14T14:16:51;1.97;;;1.87;;
6432;SDS011;3249;42.690;23.260;2023-12-14T14:19:28;2.53;;;1.77;;
6432;SDS011;3249;42.690;23.260;2023-12-14T14:22:07;3.00;;;2.70;;
6432;SDS011;3249;42.690;23.260;2023-12-14T14:24:41;1.47;;;1.37;;
6432;SDS011;3249;42.690;23.260;2023-12-14T14:27:11;1.67;;;1.60;;
6432;SDS011;3249;42.690;23.260;2023-12-14T14:29:42;3.10;;;2.13;;
6432;SDS011;3249;42.690;23.260;2023-12-14T14:32:14;2.33;;;1.63;;
6432;SDS011;3249;42.690;23.260;2023-12-14T14:34:45;1.60;;;1.50;;
6432;SDS011;3249;42.690;23.260;2023-12-14T14:37:15;5.73;;;2.93;;
6432;SDS011;3249;42.690;23.260;2023-12-14T14:39:47;3.87;;;2.20;;
6432;SDS011;3249;42.690;23.260;2023-12-14T14:42:17;1.87;;;1.70;;
6432;SDS011;3249;42.690;23.260;2023-12-14T14:44:46;1.90;;;1.80;;
6432;SDS011;3249;42.690;23.260;2023-12-14T14:47:18;1.70;;;1.60;;
6432;SDS011;3249;42.690;23.260;2023-12-14T14:49:49;2.20;;;2.10;;
6432;SDS011;3249;42.690;23.260;2023-12-14T14:52:22;2.47;;;2.37;;
6432;SDS011;3249;42.690;23.260;2023-12-14T14:54:51;2.73;;;2.53;;
6432;SDS011;3249;42.690;23.260;2023-12-14T14:57:21;3.70;;;3.00;;
6432;SDS011;3249;42.690;23.260;2023-12-14T14:59:51;3.07;;;2.77;;
6432;SDS011;3249;42.690;23.260;2023-12-14T15:02:23;4.77;;;3.03;;
6432;SDS011;3249;42.690;23.260;2023-12-14T15:04:54;4.17;;;3.50;;
6432;SDS011;3249;42.690;23.260;2023-12-14T15:07:24;8.67;;;6.77;;
6432;SDS011;3249;42.690;23.260;2023-12-14T15:09:57;7.03;;;5.80;;